sensor_id;sensor_type;location;lat;lon;timestamp;pressure;altitude;pressure_sealevel;temperature;humidity
80321;BME280;69633;47.066;15.450;2023-12-22T00:00:43;95620.19;;;6.91;84.25
80321;BME280;69633;47.066;15.450;2023-12-22T00:03:12;95575.56;;;6.82;84.25
80321;BME280;69633;47.066;15.450;2023-12-22T00:05:38;95542.00;;;6.79;85.01
80321;BME280;69633;47.066;15.450;2023-12-22T00:08:04;95564.28;;;6.82;85.00
80321;BME280;69633;47.066;15.450;2023-12-22T00:10:29;95568.91;;;6.89;84.22
80321;BME280;69633;47.066;15.450;2023-12-22T00:12:55;95530.41;;;6.84;84.86
80321;BME280;69633;47.066;15.450;2023-12-22T00:15:20;95520.97;;;6.83;85.30
80321;BME280;69633;47.066;15.450;2023-12-22T00:17:46;95518.34;;;6.83;85.02
80321;BME280;69633;47.066;15.450;2023-12-22T00:20:11;95527.25;;;6.75;85.13
80321;BME280;69633;47.066;15.450;2023-12-22T00:22:38;95544.47;;;6.69;84.99
80321;BME280;69633;47.066;15.450;2023-12-22T00:25:04;95554.78;;;6.55;85.50
80321;BME280;69633;47.066;15.450;2023-12-22T00:27:29;95574.94;;;6.44;85.86
80321;BME280;69633;47.066;15.450;2023-12-22T00:29:55;95597.38;;;6.38;86.51
80321;BME280;69633;47.066;15.450;2023-12-22T00:32:20;95592.13;;;6.38;86.16
80321;BME280;69633;47.066;15.450;2023-12-22T00:34:45;95595.81;;;6.33;86.51
80321;BME280;69633;47.066;15.450;2023-12-22T00:37:11;95576.88;;;6.27;87.10
80321;BME280;69633;47.066;15.450;2023-12-22T00:39:37;95547.56;;;6.29;86.91
80321;BME280;69633;47.066;15.450;2023-12-22T00:42:03;95528.78;;;6.11;86.87
80321;BME280;69633;47.066;15.450;2023-12-22T00:44:29;95452.84;;;6.13;86.47
80321;BME280;69633;47.066;15.450;2023-12-22T00:46:55;95471.63;;;6.35;84.01
80321;BME280;69633;47.066;15.450;2023-12-22T00:49:21;95500.63;;;6.35;84.61
80321;BME280;69633;47.066;15.450;2023-12-22T00:51:47;95526.69;;;6.40;84.25
80321;BME280;69633;47.066;15.450;2023-12-22T00:54:12;95563.22;;;6.64;80.99
80321;BME280;69633;47.066;15.450;2023-12-22T00:56:38;95582.03;;;6.85;80.17
80321;BME280;69633;47.066;15.450;2023-12-22T00:59:03;95586.72;;;6.95;79.05
80321;BME280;69633;47.066;15.450;2023-12-22T01:01:29;95621.22;;;7.09;78.15
80321;BME280;69633;47.066;15.450;2023-12-22T01:03:54;95639.50;;;7.21;77.34
80321;BME280;69633;47.066;15.450;2023-12-22T01:06:19;95654.47;;;7.37;75.86
80321;BME280;69633;47.066;15.450;2023-12-22T01:08:45;95639.84;;;7.43;75.30
80321;BME280;69633;47.066;15.450;2023-12-22T01:11:10;95655.00;;;7.46;74.88
80321;BME280;69633;47.066;15.450;2023-12-22T01:13:36;95673.84;;;7.48;74.86
80321;BME280;69633;47.066;15.450;2023-12-22T01:16:01;95691.88;;;7.42;75.00
80321;BME280;69633;47.066;15.450;2023-12-22T01:18:27;95711.16;;;7.46;75.25
80321;BME280;69633;47.066;15.450;2023-12-22T01:20:55;95724.00;;;7.48;74.41
80321;BME280;69633;47.066;15.450;2023-12-22T01:23:20;95711.63;;;7.52;74.37
80321;BME280;69633;47.066;15.450;2023-12-22T01:25:46;95691.34;;;7.56;74.08
80321;BME280;69633;47.066;15.450;2023-12-22T01:28:11;95691.28;;;7.52;74.52
80321;BME280;69633;47.066;15.450;2023-12-22T01:30:36;95689.63;;;7.44;75.10
80321;BME280;69633;47.066;15.450;2023-12-22T01:33:02;95692.22;;;7.41;75.30
80321;BME280;69633;47.066;15.450;2023-12-22T01:35:28;95713.63;;;7.36;76.01
80321;BME280;69633;47.066;15.450;2023-12-22T01:37:53;95737.75;;;7.34;76.21
80321;BME280;69633;47.066;15.450;2023-12-22T01:40:19;95725.72;;;7.37;76.33
80321;BME280;69633;47.066;15.450;2023-12-22T01:42:45;95748.25;;;7.53;75.21
80321;BME280;69633;47.066;15.450;2023-12-22T01:45:11;95748.09;;;7.69;73.93
80321;BME280;69633;47.066;15.450;2023-12-22T01:47:37;95742.19;;;7.75;74.44
80321;BME280;69633;47.066;15.450;2023-12-22T01:50:03;95740.59;;;7.71;74.38
80321;BME280;69633;47.066;15.450;2023-12-22T01:52:29;95736.84;;;7.72;74.76
80321;BME280;69633;47.066;15.450;2023-12-22T01:54:55;95748.31;;;7.57;75.32
80321;BME280;69633;47.066;15.450;2023-12-22T01:57:21;95738.63;;;7.42;75.81
80321;BME280;69633;47.066;15.450;2023-12-22T01:59:48;95755.13;;;7.39;76.37
80321;BME280;69633;47.066;15.450;2023-12-22T02:02:14;95758.84;;;7.34;76.65
80321;BME280;69633;47.066;15.450;2023-12-22T02:04:40;95754.34;;;7.35;76.52
80321;BME280;69633;47.066;15.450;2023-12-22T02:07:08;95748.63;;;7.33;77.00
80321;BME280;69633;47.066;15.450;2023-12-22T02:09:34;95739.19;;;7.32;76.67
80321;BME280;69633;47.066;15.450;2023-12-22T02:12:00;95757.25;;;7.29;77.50
80321;BME280;69633;47.066;15.450;2023-12-22T02:14:26;95748.03;;;7.20;77.63
80321;BME280;69633;47.066;15.450;2023-12-22T02:17:11;95763.78;;;7.16;77.87
80321;BME280;69633;47.066;15.450;2023-12-22T02:22:05;95812.53;;;7.03;78.86
80321;BME280;69633;47.066;15.450;2023-12-22T02:24:32;95838.09;;;6.99;79.43
80321;BME280;69633;47.066;15.450;2023-12-22T02:29:31;95854.59;;;6.96;79.41
80321;BME280;69633;47.066;15.450;2023-12-22T02:32:02;95864.38;;;6.96;79.37
80321;BME280;69633;47.066;15.450;2023-12-22T02:34:31;95836.16;;;6.96;78.99
80321;BME280;69633;47.066;15.450;2023-12-22T02:37:00;95819.69;;;7.03;77.68
80321;BME280;69633;47.066;15.450;2023-12-22T02:39:26;95799.75;;;7.05;75.48
80321;BME280;69633;47.066;15.450;2023-12-22T02:41:51;95804.50;;;7.15;75.87
80321;BME280;69633;47.066;15.450;2023-12-22T02:44:17;95775.88;;;7.17;75.75
80321;BME280;69633;47.066;15.450;2023-12-22T02:46:42;95774.22;;;7.09;75.78
80321;BME280;69633;47.066;15.450;2023-12-22T02:49:08;95784.75;;;7.09;76.12
80321;BME280;69633;47.066;15.450;2023-12-22T02:51:34;95779.34;;;7.02;74.40
80321;BME280;69633;47.066;15.450;2023-12-22T02:54:00;95770.75;;;7.05;74.00
80321;BME280;69633;47.066;15.450;2023-12-22T02:56:26;95781.16;;;6.98;74.51
80321;BME280;69633;47.066;15.450;2023-12-22T02:58:51;95786.56;;;6.86;74.78
80321;BME280;69633;47.066;15.450;2023-12-22T03:01:17;95791.03;;;6.82;74.66
80321;BME280;69633;47.066;15.450;2023-12-22T03:03:42;95807.53;;;6.79;74.85
80321;BME280;69633;47.066;15.450;2023-12-22T03:06:07;95800.75;;;6.78;74.68
80321;BME280;69633;47.066;15.450;2023-12-22T03:08:33;95800.31;;;6.76;74.36
80321;BME280;69633;47.066;15.450;2023-12-22T03:10:58;95793.09;;;6.73;74.22
80321;BME280;69633;47.066;15.450;2023-12-22T03:13:23;95805.53;;;6.72;74.60
80321;BME280;69633;47.066;15.450;2023-12-22T03:15:49;95808.09;;;6.69;74.19
80321;BME280;69633;47.066;15.450;2023-12-22T03:18:15;95810.31;;;6.67;74.22
80321;BME280;69633;47.066;15.450;2023-12-22T03:20:40;95820.16;;;6.70;73.47
80321;BME280;69633;47.066;15.450;2023-12-22T03:23:05;95813.50;;;6.76;73.78
80321;BME280;69633;47.066;15.450;2023-12-22T03:25:31;95809.06;;;6.80;72.71
80321;BME280;69633;47.066;15.450;2023-12-22T03:27:56;95818.78;;;6.76;73.03
80321;BME280;69633;47.066;15.450;2023-12-22T03:30:22;95828.06;;;6.70;72.61
80321;BME280;69633;47.066;15.450;2023-12-22T03:32:47;95822.72;;;6.66;73.08
80321;BME280;69633;47.066;15.450;2023-12-22T03:35:12;95819.72;;;6.68;73.21
80321;BME280;69633;47.066;15.450;2023-12-22T03:37:38;95794.63;;;6.74;72.89
80321;BME280;69633;47.066;15.450;2023-12-22T03:40:04;95828.47;;;6.72;71.47
80321;BME280;69633;47.066;15.450;2023-12-22T03:42:29;95830.28;;;6.68;71.79
80321;BME280;69633;47.066;15.450;2023-12-22T03:44:55;95835.47;;;6.64;70.82
80321;BME280;69633;47.066;15.450;2023-12-22T03:47:20;95837.25;;;6.60;71.01
80321;BME280;69633;47.066;15.450;2023-12-22T03:49:46;95810.06;;;6.56;70.53
80321;BME280;69633;47.066;15.450;2023-12-22T03:52:11;95848.41;;;6.54;70.96
80321;BME280;69633;47.066;15.450;2023-12-22T03:54:37;95867.97;;;6.53;70.85
80321;BME280;69633;47.066;15.450;2023-12-22T03:57:02;95855.88;;;6.67;71.29
80321;BME280;69633;47.066;15.450;2023-12-22T03:59:28;95861.06;;;6.64;71.01
80321;BME280;69633;47.066;15.450;2023-12-22T04:01:53;95863.53;;;6.57;70.72
80321;BME280;69633;47.066;15.450;2023-12-22T04:04:20;95868.81;;;6.57;71.65
80321;BME280;69633;47.066;15.450;2023-12-22T04:06:47;95880.31;;;6.49;71.38
80321;BME280;69633;47.066;15.450;2023-12-22T04:09:13;95894.94;;;6.46;71.73
80321;BME280;69633;47.066;15.450;2023-12-22T04:11:38;95911.44;;;6.43;72.35
80321;BME280;69633;47.066;15.450;2023-12-22T04:14:05;95914.84;;;6.44;72.27
80321;BME280;69633;47.066;15.450;2023-12-22T04:16:31;95914.16;;;6.47;71.71
80321;BME280;69633;47.066;15.450;2023-12-22T04:18:56;95912.63;;;6.46;71.34
80321;BME280;69633;47.066;15.450;2023-12-22T04:21:21;95917.19;;;6.49;71.11
80321;BME280;69633;47.066;15.450;2023-12-22T04:23:47;95924.69;;;6.47;68.95
80321;BME280;69633;47.066;15.450;2023-12-22T04:26:12;95925.47;;;6.47;69.36
80321;BME280;69633;47.066;15.450;2023-12-22T04:28:37;95915.94;;;6.58;65.94
80321;BME280;69633;47.066;15.450;2023-12-22T04:31:03;95925.59;;;6.70;65.24
80321;BME280;69633;47.066;15.450;2023-12-22T04:33:29;95934.88;;;6.64;65.36
80321;BME280;69633;47.066;15.450;2023-12-22T04:35:54;95939.81;;;6.65;66.15
80321;BME280;69633;47.066;15.450;2023-12-22T04:38:20;95937.41;;;6.76;63.03
80321;BME280;69633;47.066;15.450;2023-12-22T04:40:45;95968.19;;;6.72;64.95
80321;BME280;69633;47.066;15.450;2023-12-22T04:43:10;95960.22;;;6.68;65.28
80321;BME280;69633;47.066;15.450;2023-12-22T04:45:36;95937.16;;;6.65;65.78
80321;BME280;69633;47.066;15.450;2023-12-22T04:48:01;95926.22;;;6.63;65.36
80321;BME280;69633;47.066;15.450;2023-12-22T04:50:27;95888.69;;;6.70;66.11
80321;BME280;69633;47.066;15.450;2023-12-22T04:52:52;95905.88;;;6.64;65.19
80321;BME280;69633;47.066;15.450;2023-12-22T04:55:17;95924.00;;;6.50;64.84
80321;BME280;69633;47.066;15.450;2023-12-22T04:57:43;95920.34;;;6.39;65.13
80321;BME280;69633;47.066;15.450;2023-12-22T05:00:09;95900.81;;;6.40;64.85
80321;BME280;69633;47.066;15.450;2023-12-22T05:02:34;95890.53;;;6.35;64.95
80321;BME280;69633;47.066;15.450;2023-12-22T05:04:59;95903.44;;;6.24;65.40
80321;BME280;69633;47.066;15.450;2023-12-22T05:07:27;95899.19;;;6.19;65.47
80321;BME280;69633;47.066;15.450;2023-12-22T05:09:52;95885.84;;;6.12;65.51
80321;BME280;69633;47.066;15.450;2023-12-22T05:12:19;95905.38;;;6.11;65.76
80321;BME280;69633;47.066;15.450;2023-12-22T05:14:45;95909.41;;;6.21;65.33
80321;BME280;69633;47.066;15.450;2023-12-22T05:17:10;95904.03;;;6.17;64.41
80321;BME280;69633;47.066;15.450;2023-12-22T05:19:36;95903.88;;;6.10;64.78
80321;BME280;69633;47.066;15.450;2023-12-22T05:22:01;95893.59;;;6.21;64.27
80321;BME280;69633;47.066;15.450;2023-12-22T05:24:26;95885.94;;;6.16;65.68
80321;BME280;69633;47.066;15.450;2023-12-22T05:26:52;95881.97;;;6.06;64.89
80321;BME280;69633;47.066;15.450;2023-12-22T05:29:18;95854.09;;;6.05;65.50
80321;BME280;69633;47.066;15.450;2023-12-22T05:31:43;95860.97;;;6.10;65.83
80321;BME280;69633;47.066;15.450;2023-12-22T05:34:09;95875.31;;;6.12;66.10
80321;BME280;69633;47.066;15.450;2023-12-22T05:36:35;95873.38;;;6.09;65.17
80321;BME280;69633;47.066;15.450;2023-12-22T05:39:01;95878.63;;;6.09;65.60
80321;BME280;69633;47.066;15.450;2023-12-22T05:41:26;95900.38;;;6.06;65.01
80321;BME280;69633;47.066;15.450;2023-12-22T05:43:52;95899.28;;;6.07;64.84
80321;BME280;69633;47.066;15.450;2023-12-22T05:46:17;95904.66;;;6.11;65.06
80321;BME280;69633;47.066;15.450;2023-12-22T05:48:43;95906.41;;;6.22;65.89
80321;BME280;69633;47.066;15.450;2023-12-22T05:51:08;95903.97;;;6.29;65.30
80321;BME280;69633;47.066;15.450;2023-12-22T05:53:39;95908.97;;;6.35;65.10
80321;BME280;69633;47.066;15.450;2023-12-22T05:56:16;95921.88;;;6.40;65.48
80321;BME280;69633;47.066;15.450;2023-12-22T05:58:41;95933.69;;;6.46;64.75
80321;BME280;69633;47.066;15.450;2023-12-22T06:01:07;95936.84;;;6.36;64.70
80321;BME280;69633;47.066;15.450;2023-12-22T06:03:32;95927.00;;;6.32;64.76
80321;BME280;69633;47.066;15.450;2023-12-22T06:05:58;95928.09;;;6.31;63.69
80321;BME280;69633;47.066;15.450;2023-12-22T06:08:23;95948.06;;;6.32;64.49
80321;BME280;69633;47.066;15.450;2023-12-22T06:10:48;95943.41;;;6.26;65.30
80321;BME280;69633;47.066;15.450;2023-12-22T06:13:14;95945.09;;;6.18;66.09
80321;BME280;69633;47.066;15.450;2023-12-22T06:15:40;95951.28;;;6.10;66.90
80321;BME280;69633;47.066;15.450;2023-12-22T06:18:06;95951.09;;;6.03;67.57
80321;BME280;69633;47.066;15.450;2023-12-22T06:20:31;95958.56;;;6.01;68.20
80321;BME280;69633;47.066;15.450;2023-12-22T06:22:57;95963.84;;;6.01;68.47
80321;BME280;69633;47.066;15.450;2023-12-22T06:25:22;95965.97;;;5.96;68.23
80321;BME280;69633;47.066;15.450;2023-12-22T06:27:47;95958.38;;;5.94;68.62
80321;BME280;69633;47.066;15.450;2023-12-22T06:30:13;95956.84;;;5.93;68.98
80321;BME280;69633;47.066;15.450;2023-12-22T06:32:38;95968.16;;;5.94;69.00
80321;BME280;69633;47.066;15.450;2023-12-22T06:35:07;95966.59;;;5.93;68.42
80321;BME280;69633;47.066;15.450;2023-12-22T06:37:32;95962.19;;;5.97;68.23
80321;BME280;69633;47.066;15.450;2023-12-22T06:39:58;95964.50;;;5.98;68.95
80321;BME280;69633;47.066;15.450;2023-12-22T06:42:23;95962.19;;;5.97;68.25
80321;BME280;69633;47.066;15.450;2023-12-22T06:44:49;95968.25;;;5.97;69.18
80321;BME280;69633;47.066;15.450;2023-12-22T06:47:14;95977.22;;;5.96;68.70
80321;BME280;69633;47.066;15.450;2023-12-22T06:49:39;95978.78;;;5.97;68.50
80321;BME280;69633;47.066;15.450;2023-12-22T06:52:05;95992.03;;;6.01;68.67
80321;BME280;69633;47.066;15.450;2023-12-22T06:54:30;95996.63;;;6.04;68.18
80321;BME280;69633;47.066;15.450;2023-12-22T06:56:56;95993.56;;;6.02;68.15
80321;BME280;69633;47.066;15.450;2023-12-22T06:59:21;95995.53;;;6.05;68.33
80321;BME280;69633;47.066;15.450;2023-12-22T07:01:46;96003.28;;;6.13;68.02
80321;BME280;69633;47.066;15.450;2023-12-22T07:04:12;96010.09;;;6.14;67.67
80321;BME280;69633;47.066;15.450;2023-12-22T07:06:38;96025.03;;;6.10;69.28
80321;BME280;69633;47.066;15.450;2023-12-22T07:11:50;96047.22;;;5.97;69.97
80321;BME280;69633;47.066;15.450;2023-12-22T07:14:17;96060.66;;;5.92;70.09
80321;BME280;69633;47.066;15.450;2023-12-22T07:16:43;96065.91;;;5.92;70.78
80321;BME280;69633;47.066;15.450;2023-12-22T07:19:09;96041.09;;;5.93;70.75
80321;BME280;69633;47.066;15.450;2023-12-22T07:21:36;96034.50;;;5.99;70.73
80321;BME280;69633;47.066;15.450;2023-12-22T07:24:01;96025.03;;;6.10;70.53
80321;BME280;69633;47.066;15.450;2023-12-22T07:26:27;96031.34;;;6.21;70.90
80321;BME280;69633;47.066;15.450;2023-12-22T07:28:53;96024.34;;;6.13;70.73
80321;BME280;69633;47.066;15.450;2023-12-22T07:31:19;96023.06;;;6.07;70.73
80321;BME280;69633;47.066;15.450;2023-12-22T07:33:45;96009.59;;;5.97;71.07
80321;BME280;69633;47.066;15.450;2023-12-22T07:36:10;96022.44;;;5.98;72.01
80321;BME280;69633;47.066;15.450;2023-12-22T07:38:36;96034.59;;;6.03;72.63
80321;BME280;69633;47.066;15.450;2023-12-22T07:41:01;96026.63;;;5.99;72.42
80321;BME280;69633;47.066;15.450;2023-12-22T07:43:27;96011.75;;;6.07;72.63
80321;BME280;69633;47.066;15.450;2023-12-22T07:45:54;96022.81;;;6.12;72.79
80321;BME280;69633;47.066;15.450;2023-12-22T07:48:20;96027.16;;;6.20;72.21
80321;BME280;69633;47.066;15.450;2023-12-22T07:50:45;96020.13;;;6.24;72.32
80321;BME280;69633;47.066;15.450;2023-12-22T07:53:11;96022.31;;;6.22;73.09
80321;BME280;69633;47.066;15.450;2023-12-22T07:55:36;96017.25;;;6.29;72.76
80321;BME280;69633;47.066;15.450;2023-12-22T07:58:06;96017.50;;;6.24;72.72
80321;BME280;69633;47.066;15.450;2023-12-22T08:00:33;96027.34;;;6.27;72.58
80321;BME280;69633;47.066;15.450;2023-12-22T08:02:59;96013.94;;;6.32;73.20
80321;BME280;69633;47.066;15.450;2023-12-22T08:05:25;96015.38;;;6.46;72.87
80321;BME280;69633;47.066;15.450;2023-12-22T08:07:50;96034.94;;;6.45;72.01
80321;BME280;69633;47.066;15.450;2023-12-22T08:10:15;96040.97;;;6.29;72.85
80321;BME280;69633;47.066;15.450;2023-12-22T08:12:41;96060.31;;;6.21;73.25
80321;BME280;69633;47.066;15.450;2023-12-22T08:15:07;96065.81;;;6.16;72.95
80321;BME280;69633;47.066;15.450;2023-12-22T08:17:36;96056.91;;;6.21;73.55
80321;BME280;69633;47.066;15.450;2023-12-22T08:20:02;96047.00;;;6.46;72.12
80321;BME280;69633;47.066;15.450;2023-12-22T08:22:27;96051.81;;;6.56;72.61
80321;BME280;69633;47.066;15.450;2023-12-22T08:24:52;96052.63;;;6.44;72.30
80321;BME280;69633;47.066;15.450;2023-12-22T08:27:18;96057.94;;;6.32;73.32
80321;BME280;69633;47.066;15.450;2023-12-22T08:29:43;96060.91;;;6.30;73.49
80321;BME280;69633;47.066;15.450;2023-12-22T08:32:09;96083.81;;;6.42;73.51
80321;BME280;69633;47.066;15.450;2023-12-22T08:34:35;96083.22;;;6.49;73.39
80321;BME280;69633;47.066;15.450;2023-12-22T08:37:00;96056.38;;;6.59;73.57
80321;BME280;69633;47.066;15.450;2023-12-22T08:39:25;96039.22;;;6.65;73.80
80321;BME280;69633;47.066;15.450;2023-12-22T08:41:51;96063.84;;;6.57;73.04
80321;BME280;69633;47.066;15.450;2023-12-22T08:44:17;96084.41;;;6.36;74.21
80321;BME280;69633;47.066;15.450;2023-12-22T08:46:43;96084.56;;;6.15;76.60
80321;BME280;69633;47.066;15.450;2023-12-22T08:49:08;96090.88;;;6.10;76.83
80321;BME280;69633;47.066;15.450;2023-12-22T08:51:34;96094.38;;;6.14;77.00
80321;BME280;69633;47.066;15.450;2023-12-22T08:54:00;96078.94;;;6.28;76.79
80321;BME280;69633;47.066;15.450;2023-12-22T08:56:25;96080.84;;;6.16;75.75
80321;BME280;69633;47.066;15.450;2023-12-22T08:58:52;96073.53;;;6.09;76.09
80321;BME280;69633;47.066;15.450;2023-12-22T09:01:20;96073.94;;;6.11;76.80
80321;BME280;69633;47.066;15.450;2023-12-22T09:03:46;96071.19;;;6.20;76.39
80321;BME280;69633;47.066;15.450;2023-12-22T09:06:19;96068.69;;;6.11;76.33
80321;BME280;69633;47.066;15.450;2023-12-22T09:08:44;96069.81;;;6.10;77.15
80321;BME280;69633;47.066;15.450;2023-12-22T09:11:15;96060.44;;;6.13;77.64
80321;BME280;69633;47.066;15.450;2023-12-22T09:13:41;96052.78;;;6.08;77.46
80321;BME280;69633;47.066;15.450;2023-12-22T09:16:08;96041.38;;;6.04;76.97
80321;BME280;69633;47.066;15.450;2023-12-22T09:18:34;96063.81;;;5.98;77.22
80321;BME280;69633;47.066;15.450;2023-12-22T09:21:00;96068.28;;;5.97;77.50
80321;BME280;69633;47.066;15.450;2023-12-22T09:23:26;96074.66;;;5.96;77.95
80321;BME280;69633;47.066;15.450;2023-12-22T09:25:52;96086.53;;;5.90;77.93
80321;BME280;69633;47.066;15.450;2023-12-22T09:28:17;96091.38;;;5.76;78.47
80321;BME280;69633;47.066;15.450;2023-12-22T09:30:42;96073.16;;;5.71;78.55
80321;BME280;69633;47.066;15.450;2023-12-22T09:33:11;96054.06;;;5.74;79.11
80321;BME280;69633;47.066;15.450;2023-12-22T09:35:37;96034.84;;;5.85;78.32
80321;BME280;69633;47.066;15.450;2023-12-22T09:38:06;96052.03;;;6.07;78.36
80321;BME280;69633;47.066;15.450;2023-12-22T09:40:33;96075.00;;;6.22;77.38
80321;BME280;69633;47.066;15.450;2023-12-22T09:43:01;96097.03;;;6.02;78.20
80321;BME280;69633;47.066;15.450;2023-12-22T09:45:28;96083.91;;;5.90;78.39
80321;BME280;69633;47.066;15.450;2023-12-22T09:47:56;96086.09;;;5.88;78.75
80321;BME280;69633;47.066;15.450;2023-12-22T09:50:22;96110.78;;;5.83;79.27
80321;BME280;69633;47.066;15.450;2023-12-22T09:52:48;96102.72;;;6.04;78.54
80321;BME280;69633;47.066;15.450;2023-12-22T09:55:14;96064.47;;;6.22;77.55
80321;BME280;69633;47.066;15.450;2023-12-22T09:57:39;96088.81;;;6.31;78.64
80321;BME280;69633;47.066;15.450;2023-12-22T10:00:10;96103.56;;;6.20;78.31
80321;BME280;69633;47.066;15.450;2023-12-22T10:02:37;96101.47;;;6.26;78.34
80321;BME280;69633;47.066;15.450;2023-12-22T10:05:04;96076.66;;;6.43;77.39
80321;BME280;69633;47.066;15.450;2023-12-22T10:07:30;96072.88;;;6.56;76.44
80321;BME280;69633;47.066;15.450;2023-12-22T10:09:56;96123.88;;;6.48;76.58
80321;BME280;69633;47.066;15.450;2023-12-22T10:12:23;96107.25;;;6.31;78.03
80321;BME280;69633;47.066;15.450;2023-12-22T10:14:49;96111.22;;;6.25;78.43
80321;BME280;69633;47.066;15.450;2023-12-22T10:17:15;96134.50;;;6.23;78.43
80321;BME280;69633;47.066;15.450;2023-12-22T10:19:42;96144.94;;;6.20;77.91
80321;BME280;69633;47.066;15.450;2023-12-22T10:22:07;96156.53;;;6.31;77.73
80321;BME280;69633;47.066;15.450;2023-12-22T10:27:07;96203.19;;;6.30;77.18
80321;BME280;69633;47.066;15.450;2023-12-22T10:29:34;96158.06;;;6.32;76.88
80321;BME280;69633;47.066;15.450;2023-12-22T10:32:04;96095.56;;;6.45;77.04
80321;BME280;69633;47.066;15.450;2023-12-22T10:34:33;96135.50;;;6.74;75.58
80321;BME280;69633;47.066;15.450;2023-12-22T10:36:59;96103.13;;;6.90;74.89
80321;BME280;69633;47.066;15.450;2023-12-22T10:39:31;96115.44;;;7.01;75.20
80321;BME280;69633;47.066;15.450;2023-12-22T10:42:00;96106.94;;;6.92;73.91
80321;BME280;69633;47.066;15.450;2023-12-22T10:44:26;96061.16;;;7.00;72.32
80321;BME280;69633;47.066;15.450;2023-12-22T10:46:52;96069.25;;;7.07;73.45
80321;BME280;69633;47.066;15.450;2023-12-22T10:49:21;96051.72;;;7.15;73.10
80321;BME280;69633;47.066;15.450;2023-12-22T10:51:47;96053.31;;;7.19;71.81
80321;BME280;69633;47.066;15.450;2023-12-22T10:54:13;96091.13;;;7.23;72.67
80321;BME280;69633;47.066;15.450;2023-12-22T10:56:39;96078.88;;;7.15;73.07
80321;BME280;69633;47.066;15.450;2023-12-22T10:59:05;96075.53;;;7.18;71.97
80321;BME280;69633;47.066;15.450;2023-12-22T11:01:32;96057.53;;;7.40;71.69
80321;BME280;69633;47.066;15.450;2023-12-22T11:04:05;96045.91;;;7.60;70.06
80321;BME280;69633;47.066;15.450;2023-12-22T11:06:35;96040.78;;;7.67;70.40
80321;BME280;69633;47.066;15.450;2023-12-22T11:09:05;96035.22;;;7.72;70.15
80321;BME280;69633;47.066;15.450;2023-12-22T11:11:35;96037.31;;;7.82;70.77
80321;BME280;69633;47.066;15.450;2023-12-22T11:14:01;96032.31;;;7.77;70.07
80321;BME280;69633;47.066;15.450;2023-12-22T11:16:31;96020.69;;;7.62;70.78
80321;BME280;69633;47.066;15.450;2023-12-22T11:18:59;96014.59;;;7.43;70.01
80321;BME280;69633;47.066;15.450;2023-12-22T11:21:25;96013.25;;;7.49;69.72
80321;BME280;69633;47.066;15.450;2023-12-22T11:23:52;96007.56;;;7.66;70.21
80321;BME280;69633;47.066;15.450;2023-12-22T11:26:18;96002.56;;;7.80;68.75
80321;BME280;69633;47.066;15.450;2023-12-22T11:28:48;96013.63;;;7.86;69.52
80321;BME280;69633;47.066;15.450;2023-12-22T11:31:14;96009.66;;;7.76;71.48
80321;BME280;69633;47.066;15.450;2023-12-22T11:33:50;96018.75;;;7.59;73.15
80321;BME280;69633;47.066;15.450;2023-12-22T11:36:17;96036.88;;;7.61;72.70
80321;BME280;69633;47.066;15.450;2023-12-22T11:38:45;96052.56;;;7.54;73.48
80321;BME280;69633;47.066;15.450;2023-12-22T11:41:18;96052.25;;;7.40;73.52
80321;BME280;69633;47.066;15.450;2023-12-22T11:43:45;96058.00;;;7.26;74.24
80321;BME280;69633;47.066;15.450;2023-12-22T11:46:16;96073.16;;;7.13;75.53
80321;BME280;69633;47.066;15.450;2023-12-22T11:48:48;96077.16;;;7.07;75.80
80321;BME280;69633;47.066;15.450;2023-12-22T11:51:15;96064.53;;;7.16;75.41
80321;BME280;69633;47.066;15.450;2023-12-22T11:53:41;96024.13;;;7.12;76.33
80321;BME280;69633;47.066;15.450;2023-12-22T11:56:08;96015.53;;;7.15;76.71
80321;BME280;69633;47.066;15.450;2023-12-22T11:58:45;96016.47;;;7.23;76.26
80321;BME280;69633;47.066;15.450;2023-12-22T12:01:19;96005.00;;;7.15;76.44
80321;BME280;69633;47.066;15.450;2023-12-22T12:08:38;95970.03;;;7.03;71.84
80321;BME280;69633;47.066;15.450;2023-12-22T12:11:04;95992.59;;;7.00;72.56
80321;BME280;69633;47.066;15.450;2023-12-22T12:13:31;95973.84;;;7.05;71.44
80321;BME280;69633;47.066;15.450;2023-12-22T12:15:58;95965.19;;;7.05;72.40
80321;BME280;69633;47.066;15.450;2023-12-22T12:18:30;95968.25;;;6.91;72.54
80321;BME280;69633;47.066;15.450;2023-12-22T12:20:56;95978.66;;;6.84;72.73
80321;BME280;69633;47.066;15.450;2023-12-22T12:23:26;95977.13;;;6.83;71.84
80321;BME280;69633;47.066;15.450;2023-12-22T12:25:53;95984.34;;;6.86;71.98
80321;BME280;69633;47.066;15.450;2023-12-22T12:28:30;95981.38;;;6.72;71.70
80321;BME280;69633;47.066;15.450;2023-12-22T12:31:00;95979.88;;;6.71;72.27
80321;BME280;69633;47.066;15.450;2023-12-22T12:33:26;95986.25;;;6.70;73.20
80321;BME280;69633;47.066;15.450;2023-12-22T12:35:57;95995.41;;;6.60;73.41
80321;BME280;69633;47.066;15.450;2023-12-22T12:38:36;96006.56;;;6.69;73.18
80321;BME280;69633;47.066;15.450;2023-12-22T12:41:05;96022.06;;;6.71;73.73
80321;BME280;69633;47.066;15.450;2023-12-22T12:43:31;96018.66;;;6.70;73.85
80321;BME280;69633;47.066;15.450;2023-12-22T12:46:06;95994.63;;;6.75;72.87
80321;BME280;69633;47.066;15.450;2023-12-22T12:48:32;95980.09;;;6.82;72.87
80321;BME280;69633;47.066;15.450;2023-12-22T12:51:04;95986.97;;;6.86;73.82
80321;BME280;69633;47.066;15.450;2023-12-22T12:53:31;95993.38;;;6.69;73.25
80321;BME280;69633;47.066;15.450;2023-12-22T12:55:58;96005.63;;;6.62;73.72
80321;BME280;69633;47.066;15.450;2023-12-22T12:58:28;96021.69;;;6.57;74.92
80321;BME280;69633;47.066;15.450;2023-12-22T13:01:02;96010.28;;;6.68;75.08
80321;BME280;69633;47.066;15.450;2023-12-22T13:03:29;96000.97;;;6.71;75.02
80321;BME280;69633;47.066;15.450;2023-12-22T13:06:06;96002.38;;;6.68;74.94
80321;BME280;69633;47.066;15.450;2023-12-22T13:08:31;96004.53;;;6.63;75.46
80321;BME280;69633;47.066;15.450;2023-12-22T13:11:00;96011.31;;;6.64;76.33